Cucumber, West Virginia
Current Conditions -  °F | °C
As of 3:15 PM on Thursday 29 Jan 2015 (Local Time) from KJFZ Reporting Station
Broken Clouds Broken Clouds  
Wind Chill: 40°   Ceiling: 3600
Heat Index: 47°   Visibility: 10mi
Dew Point: 27°   Wind: 18mph
Humidity: 45%   Direction: 240°WSW
Pressure: 29.94"   Gusts: 31mph
Location:  37.28°N, 81.63°W
Report Text: KJFZ 292015Z AUTO 24016G27KT 10SM BKN036 09/M03 A2994 RMK AO2 T00851029
Loading
Personal Weather Stations






























Interactive Weather Map New forecast layout! Learn more

10-Day Weather Forecast

Advertisements
Track Severe Weather on mobile